Time;durP1;ratioP1;P1;durP2;ratioP2;P2;SDS_P1;SDS_P2;PMS_P1;PMS_P2;Temp;Humidity;BMP_temperature;BMP_pressure;BME280_temperature;BME280_humidity;BME280_pressure;Samples;Min_cycle;Max_cycle;Signal;HPM_P1;HPM_P2
2021/12/16 00:09:48;;;;;;;20.02;11.65;;;8.90;99.90;;;;;;5100387;28;19916;-72
2021/12/16 00:34:02;;;;;;;18.27;10.55;;;9.10;99.90;;;;;;5094224;28;20051;-72
2021/12/16 00:36:36;;;;;;;22.73;11.13;;;8.30;99.90;;;;;;5109991;28;20036;-72
2021/12/16 00:39:09;;;;;;;29.05;11.85;;;8.50;99.90;;;;;;5099908;28;20050;-72
2021/12/16 00:41:36;;;;;;;21.95;10.93;;;8.40;99.90;;;;;;5108828;28;20395;-72
2021/12/16 00:44:14;;;;;;;22.70;10.40;;;8.90;99.90;;;;;;5106034;28;20051;-72
2021/12/16 00:54:42;;;;;;;22.60;10.63;;;8.60;99.90;;;;;;5101469;28;20066;-72
2021/12/16 00:57:12;;;;;;;20.45;10.18;;;8.90;99.90;;;;;;5107282;28;20103;-72
2021/12/16 00:59:42;;;;;;;24.80;11.80;;;9.10;99.90;;;;;;5109438;28;20157;-72
2021/12/16 01:05:07;;;;;;;23.45;11.23;;;8.50;99.90;;;;;;5107296;28;20102;-71
2021/12/16 01:40:10;;;;;;;21.00;10.18;;;8.90;99.90;;;;;;5095545;28;20471;-72
2021/12/16 01:50:39;;;;;;;20.55;8.73;;;9.50;99.90;;;;;;5110304;28;20044;-72
2021/12/16 01:55:49;;;;;;;21.77;8.43;;;9.10;99.90;;;;;;5108128;28;20440;-72
2021/12/16 01:58:20;;;;;;;18.42;8.65;;;9.70;99.90;;;;;;5100518;28;20059;-71
2021/12/16 02:01:15;;;;;;;16.40;7.57;;;9.20;99.90;;;;;;5105116;28;20076;-71
2021/12/16 02:03:49;;;;;;;20.60;8.88;;;9.70;99.90;;;;;;5106569;28;20049;-71
2021/12/16 02:08:47;;;;;;;22.27;8.38;;;9.20;99.90;;;;;;5109846;28;20047;-71
2021/12/16 02:11:42;;;;;;;16.15;8.50;;;9.30;99.90;;;;;;5109072;28;20119;-72
2021/12/16 02:35:44;;;;;;;17.27;7.15;;;9.60;99.90;;;;;;5107805;28;20060;-71
2021/12/16 02:38:13;;;;;;;16.03;7.37;;;9.90;99.90;;;;;;5104988;28;20047;-71
2021/12/16 02:40:40;;;;;;;15.45;6.88;;;9.70;99.90;;;;;;5108789;28;20042;-71
2021/12/16 02:48:35;;;;;;;14.48;7.07;;;9.80;99.90;;;;;;5107899;28;20055;-72
2021/12/16 02:51:04;;;;;;;;;;;9.50;99.90;;;;;;5091311;28;20478;-71
2021/12/16 02:53:30;;;;;;;19.17;8.00;;;9.90;99.90;;;;;;5107109;28;19923;-71
2021/12/16 02:55:56;;;;;;;20.02;8.07;;;9.60;99.90;;;;;;5104478;28;20082;-71
2021/12/16 02:58:23;;;;;;;16.73;7.68;;;9.20;99.90;;;;;;5104036;28;20097;-71
2021/12/16 03:01:11;;;;;;;19.92;9.13;;;9.30;99.90;;;;;;5106410;28;20063;-71
2021/12/16 03:03:39;;;;;;;21.13;7.63;;;9.10;99.90;;;;;;5105443;28;20040;-71
2021/12/16 03:06:06;;;;;;;15.70;7.57;;;9.20;99.90;;;;;;5107679;28;20064;-71
2021/12/16 03:08:33;;;;;;;15.07;6.95;;;9.20;99.90;;;;;;5106497;28;20494;-71
2021/12/16 03:13:34;;;;;;;12.05;6.47;;;9.40;99.90;;;;;;5103066;28;20067;-71
2021/12/16 03:21:11;;;;;;;15.80;7.10;;;9.20;99.90;;;;;;5101041;28;20035;-71
2021/12/16 03:29:03;;;;;;;13.93;6.78;;;9.20;99.90;;;;;;5106180;28;20055;-72
2021/12/16 03:32:06;;;;;;;18.65;7.38;;;9.10;99.90;;;;;;5105271;27;20351;-72
2021/12/16 03:37:16;;;;;;;15.45;7.78;;;8.50;99.90;;;;;;5110332;28;20514;-71
2021/12/16 03:39:56;;;;;;;13.60;7.15;;;9.10;99.90;;;;;;5111495;28;20115;-71
2021/12/16 03:42:33;;;;;;;15.30;7.10;;;8.40;99.90;;;;;;5111692;28;20039;-71
2021/12/16 03:46:25;;;;;;;16.95;7.95;;;8.70;99.90;;;;;;5110360;28;20036;-71
2021/12/16 03:47:56;;;;;;;12.95;7.07;;;8.40;99.90;;;;;;5105178;28;20549;-71
2021/12/16 03:50:22;;;;;;;20.35;8.43;;;8.50;99.90;;;;;;5107759;28;20043;-71
2021/12/16 03:52:49;;;;;;;17.63;7.97;;;8.90;99.90;;;;;;5109786;28;20122;-71
2021/12/16 03:55:17;;;;;;;15.85;7.97;;;8.50;99.90;;;;;;5108636;28;20119;-71
2021/12/16 03:57:43;;;;;;;16.20;8.10;;;8.80;99.90;;;;;;5108460;28;20056;-71
2021/12/16 04:00:19;;;;;;;19.10;8.10;;;9.00;99.90;;;;;;5107373;28;20031;-71
2021/12/16 04:02:47;;;;;;;19.38;8.13;;;8.30;99.90;;;;;;5103270;28;20047;-71
2021/12/16 04:05:14;;;;;;;19.33;7.80;;;8.20;99.90;;;;;;5109019;28;20046;-71
2021/12/16 04:07:42;;;;;;;19.95;8.40;;;8.30;99.90;;;;;;5098946;28;20044;-71
2021/12/16 04:10:12;;;;;;;18.50;8.48;;;8.30;99.90;;;;;;5101640;28;20051;-71
2021/12/16 04:12:38;;;;;;;25.25;8.85;;;8.50;99.90;;;;;;5107811;28;20116;-71
2021/12/16 04:15:07;;;;;;;15.70;7.80;;;8.60;99.90;;;;;;5104287;28;20039;-71
2021/12/16 04:17:35;;;;;;;19.27;7.55;;;8.70;99.90;;;;;;5108706;28;20383;-71
2021/12/16 04:20:03;;;;;;;19.25;8.20;;;8.50;99.90;;;;;;5106940;28;20101;-71
2021/12/16 04:22:36;;;;;;;17.15;7.97;;;7.90;99.90;;;;;;5111458;28;20035;-71
2021/12/16 04:25:07;;;;;;;17.33;7.65;;;8.50;99.90;;;;;;5083900;28;20144;-71
2021/12/16 04:27:35;;;;;;;17.33;7.47;;;8.00;99.90;;;;;;5104758;28;20506;-71
2021/12/16 04:30:01;;;;;;;25.20;8.40;;;8.70;99.90;;;;;;5106475;28;20438;-71
2021/12/16 04:32:26;;;;;;;19.92;8.27;;;8.80;99.90;;;;;;5103250;28;20039;-71
2021/12/16 04:34:53;;;;;;;16.30;8.18;;;8.10;99.90;;;;;;5104091;28;20423;-71
2021/12/16 04:37:19;;;;;;;22.25;8.55;;;8.10;99.90;;;;;;5107776;28;20095;-71
2021/12/16 04:39:46;;;;;;;21.85;8.50;;;8.60;99.90;;;;;;5085974;28;20154;-71
2021/12/16 04:42:14;;;;;;;15.88;8.25;;;8.00;99.90;;;;;;5105212;28;20118;-71
2021/12/16 04:44:41;;;;;;;20.42;9.15;;;8.10;99.90;;;;;;5104793;28;20736;-70
2021/12/16 04:47:09;;;;;;;18.95;9.70;;;8.30;99.90;;;;;;5105077;28;20108;-71
2021/12/16 04:49:35;;;;;;;15.18;7.85;;;8.40;99.90;;;;;;5090255;28;20047;-71
2021/12/16 04:52:07;;;;;;;21.23;8.73;;;8.20;99.90;;;;;;5105024;28;20134;-72
2021/12/16 04:54:33;;;;;;;16.73;8.65;;;8.20;99.90;;;;;;5104344;28;20051;-72
2021/12/16 04:57:00;;;;;;;19.20;10.35;;;8.60;99.90;;;;;;5109725;28;20048;-72
2021/12/16 04:59:29;;;;;;;16.65;9.48;;;7.90;99.90;;;;;;5107800;28;20039;-72
2021/12/16 05:02:01;;;;;;;16.95;8.40;;;8.00;99.90;;;;;;5106459;28;20047;-71
2021/12/16 05:04:27;;;;;;;21.60;9.82;;;8.20;99.90;;;;;;5103390;28;20084;-71
2021/12/16 05:06:53;;;;;;;18.00;8.75;;;8.20;99.90;;;;;;5094509;28;20417;-71
2021/12/16 05:09:36;;;;;;;15.63;8.15;;;8.20;99.90;;;;;;5107962;28;20047;-71
2021/12/16 05:12:04;;;;;;;22.63;10.15;;;8.40;99.90;;;;;;5108879;28;20043;-72
2021/12/16 05:14:29;;;;;;;24.10;9.77;;;8.40;99.90;;;;;;5108175;28;20040;-71
2021/12/16 05:16:55;;;;;;;21.10;10.73;;;8.30;99.90;;;;;;5091674;28;20047;-71
2021/12/16 05:19:23;;;;;;;25.77;11.52;;;8.00;99.90;;;;;;5085629;28;20048;-71
2021/12/16 05:21:56;;;;;;;21.92;11.05;;;8.40;99.90;;;;;;5089395;28;20127;-71
2021/12/16 05:24:27;;;;;;;25.17;10.75;;;8.20;99.90;;;;;;5088894;28;20047;-71
2021/12/16 05:27:03;;;;;;;21.25;11.63;;;8.10;99.90;;;;;;5110651;28;20043;-71
2021/12/16 05:29:29;;;;;;;19.77;12.00;;;8.20;99.90;;;;;;5107717;28;20388;-72
2021/12/16 05:31:55;;;;;;;25.65;12.25;;;7.80;99.90;;;;;;5108980;28;20109;-71
2021/12/16 05:34:22;;;;;;;22.20;11.35;;;7.70;99.90;;;;;;5109534;28;20062;-71
2021/12/16 05:36:48;;;;;;;24.95;10.68;;;8.00;99.90;;;;;;5092144;28;20104;-70
2021/12/16 05:39:16;;;;;;;22.40;11.77;;;8.50;99.90;;;;;;5108178;28;20040;-71
2021/12/16 05:41:42;;;;;;;24.27;11.40;;;8.50;99.90;;;;;;5098668;28;20051;-71
2021/12/16 05:44:09;;;;;;;23.45;10.35;;;8.20;99.90;;;;;;5108752;28;20035;-70
2021/12/16 05:46:37;;;;;;;22.70;11.43;;;8.50;99.90;;;;;;5109324;28;20051;-71
2021/12/16 05:49:06;;;;;;;22.27;10.70;;;8.70;99.90;;;;;;5107463;28;20115;-71
2021/12/16 05:51:36;;;;;;;23.70;11.68;;;8.10;99.90;;;;;;5109132;28;20040;-71
2021/12/16 05:54:05;;;;;;;19.20;10.80;;;7.90;99.90;;;;;;5105737;28;20131;-72
2021/12/16 05:56:32;;;;;;;22.27;11.10;;;8.20;99.90;;;;;;5107429;28;20501;-71
2021/12/16 05:58:58;;;;;;;20.17;10.63;;;8.00;99.90;;;;;;5107352;28;20046;-71
2021/12/16 06:01:31;;;;;;;26.98;11.60;;;7.90;99.90;;;;;;5108230;28;20349;-71
2021/12/16 06:03:58;;;;;;;19.98;10.63;;;8.70;99.90;;;;;;5108011;28;20040;-71
2021/12/16 06:06:27;;;;;;;18.73;10.55;;;8.60;99.90;;;;;;5105960;28;20039;-71
2021/12/16 06:08:54;;;;;;;22.67;9.80;;;7.90;99.90;;;;;;5091107;28;20066;-71
2021/12/16 06:11:24;;;;;;;23.17;11.27;;;8.60;99.90;;;;;;5106092;28;20043;-71
2021/12/16 06:14:03;;;;;;;20.73;10.68;;;7.70;99.90;;;;;;5107372;28;20047;-71
2021/12/16 06:27:31;;;;;;;23.73;11.75;;;7.80;99.90;;;;;;5106797;28;20383;-71
2021/12/16 06:29:57;;;;;;;20.50;10.85;;;8.10;99.90;;;;;;5097763;28;20105;-71
2021/12/16 06:32:25;;;;;;;25.05;10.77;;;8.50;99.90;;;;;;5106057;28;20035;-71
2021/12/16 06:34:51;;;;;;;25.65;10.43;;;8.40;99.90;;;;;;5104868;28;20081;-71
2021/12/16 06:37:17;;;;;;;20.15;11.20;;;7.60;99.90;;;;;;5109406;28;20043;-71
2021/12/16 06:39:43;;;;;;;25.95;11.70;;;8.80;99.90;;;;;;5110302;28;20046;-71
2021/12/16 06:42:10;;;;;;;24.70;11.45;;;8.70;99.90;;;;;;5105273;28;20445;-71
2021/12/16 06:44:43;;;;;;;24.15;12.35;;;7.90;99.90;;;;;;5104363;28;20040;-71
2021/12/16 06:47:15;;;;;;;24.52;11.57;;;7.60;99.90;;;;;;5106675;28;20055;-72
2021/12/16 06:49:44;;;;;;;20.42;11.40;;;8.40;99.90;;;;;;5103955;28;20043;-71
2021/12/16 06:52:14;;;;;;;23.80;10.63;;;8.80;99.90;;;;;;5092731;28;20435;-71
2021/12/16 06:57:36;;;;;;;23.67;11.65;;;8.40;99.90;;;;;;5101780;28;20054;-71
2021/12/16 07:00:14;;;;;;;23.67;11.38;;;8.30;99.90;;;;;;5108638;28;20075;-71
2021/12/16 07:02:58;;;;;;;21.30;10.60;;;8.10;99.90;;;;;;5104371;28;20035;-72
2021/12/16 07:05:37;;;;;;;29.20;11.30;;;8.00;99.90;;;;;;5103425;28;20047;-72
2021/12/16 07:08:07;;;;;;;19.08;10.50;;;8.00;99.90;;;;;;5104799;28;20043;-72
2021/12/16 07:10:33;;;;;;;23.38;10.65;;;8.00;99.90;;;;;;5099789;28;20495;-73
2021/12/16 07:13:06;;;;;;;20.67;11.00;;;8.50;99.90;;;;;;5105105;28;20046;-72
2021/12/16 07:15:34;;;;;;;22.15;10.40;;;7.90;99.90;;;;;;5109686;28;20075;-73
2021/12/16 07:18:01;;;;;;;24.60;11.60;;;7.90;99.90;;;;;;5112953;28;20035;-72
2021/12/16 07:20:32;;;;;;;24.55;11.32;;;8.50;99.90;;;;;;5110888;28;20077;-73
2021/12/16 07:23:00;;;;;;;18.65;11.00;;;7.90;99.90;;;;;;5108846;28;20082;-72
2021/12/16 07:25:26;;;;;;;22.85;11.82;;;7.70;99.90;;;;;;5110227;28;20039;-72
2021/12/16 07:27:52;;;;;;;18.08;11.07;;;8.80;99.90;;;;;;5111614;28;20134;-72
2021/12/16 07:30:19;;;;;;;23.63;10.93;;;8.30;99.90;;;;;;5110114;28;20051;-72
2021/12/16 07:32:45;;;;;;;28.92;12.07;;;7.70;99.90;;;;;;5108286;28;20426;-72
2021/12/16 07:35:15;;;;;;;25.05;10.77;;;7.70;99.90;;;;;;5089978;28;20105;-71
2021/12/16 07:37:42;;;;;;;23.75;11.80;;;8.70;99.90;;;;;;5109853;28;20485;-72
2021/12/16 07:40:14;;;;;;;20.00;11.82;;;7.80;99.90;;;;;;5110663;28;20043;-73
2021/12/16 07:45:44;;;;;;;23.38;12.77;;;8.20;99.90;;;;;;5060409;28;20517;-72
2021/12/16 07:48:17;;;;;;;20.35;10.57;;;8.60;99.90;;;;;;5096261;28;20092;-71
2021/12/16 07:50:46;;;;;;;21.35;11.48;;;7.90;99.90;;;;;;5111541;28;20047;-71
2021/12/16 07:53:12;;;;;;;22.00;11.55;;;8.00;99.90;;;;;;5102376;28;20463;-71
2021/12/16 07:55:41;;;;;;;19.55;10.55;;;7.80;99.90;;;;;;5113010;28;20159;-72
2021/12/16 07:58:07;;;;;;;29.23;12.45;;;8.20;99.90;;;;;;5106856;28;20046;-72
2021/12/16 08:00:34;;;;;;;20.50;11.32;;;8.90;99.90;;;;;;5110087;27;20494;-70
2021/12/16 08:03:01;;;;;;;21.55;11.75;;;8.60;99.90;;;;;;5103935;28;20078;-70
2021/12/16 08:05:28;;;;;;;29.70;13.35;;;8.90;99.90;;;;;;5104072;28;20044;-70
2021/12/16 08:07:54;;;;;;;27.20;12.18;;;7.80;99.90;;;;;;5112306;28;20039;-71
2021/12/16 08:10:23;;;;;;;22.73;12.02;;;8.70;99.90;;;;;;5112504;28;20047;-71
2021/12/16 08:12:49;;;;;;;26.33;12.10;;;8.80;99.90;;;;;;5111555;28;20107;-71
2021/12/16 08:15:18;;;;;;;23.23;11.77;;;7.90;99.90;;;;;;5104641;28;20375;-72
2021/12/16 08:17:45;;;;;;;28.40;11.63;;;8.50;99.90;;;;;;5112883;28;20122;-71
2021/12/16 08:20:16;;;;;;;23.25;11.93;;;8.00;99.90;;;;;;5112084;28;20047;-72
2021/12/16 08:22:44;;;;;;;28.45;13.52;;;7.70;99.90;;;;;;5111893;28;20096;-71
2021/12/16 08:25:11;;;;;;;31.45;13.32;;;8.10;99.90;;;;;;5111454;28;20039;-72
2021/12/16 08:27:39;;;;;;;21.13;11.40;;;8.00;99.90;;;;;;5112286;28;20134;-71
2021/12/16 08:30:10;;;;;;;29.60;13.13;;;8.20;99.90;;;;;;5111710;28;20043;-72
2021/12/16 08:32:37;;;;;;;27.85;13.50;;;8.90;99.90;;;;;;5112374;28;20121;-72
2021/12/16 08:35:04;;;;;;;27.73;13.07;;;8.60;99.90;;;;;;5094796;28;20075;-72
2021/12/16 08:37:30;;;;;;;23.75;12.77;;;8.30;99.90;;;;;;5112136;28;20063;-72
2021/12/16 08:39:56;;;;;;;29.00;12.88;;;8.70;99.90;;;;;;5112816;28;20039;-72
2021/12/16 08:42:22;;;;;;;27.65;13.27;;;8.20;99.90;;;;;;5111097;28;20039;-72
2021/12/16 08:44:48;;;;;;;28.85;15.32;;;8.20;99.90;;;;;;5112367;28;20409;-71
2021/12/16 08:47:17;;;;;;;29.42;14.65;;;8.30;99.90;;;;;;5111104;28;20569;-73
2021/12/16 08:49:43;;;;;;;26.02;14.07;;;9.40;99.90;;;;;;5112381;28;20042;-71
2021/12/16 08:52:13;;;;;;;27.95;13.90;;;9.10;99.90;;;;;;5111146;28;20418;-71
2021/12/16 08:54:39;;;;;;;30.85;13.63;;;8.10;99.90;;;;;;5113397;28;20047;-71
2021/12/16 08:57:05;;;;;;;31.27;14.25;;;8.80;99.90;;;;;;5110391;28;20055;-71
2021/12/16 08:59:32;;;;;;;39.83;15.07;;;8.40;99.90;;;;;;5113400;28;20039;-71
2021/12/16 09:01:59;;;;;;;24.70;13.20;;;9.30;99.90;;;;;;5111097;28;20486;-71
2021/12/16 09:04:26;;;;;;;29.33;14.60;;;9.10;99.90;;;;;;5112271;28;20075;-71
2021/12/16 09:06:53;;;;;;;30.90;14.35;;;9.20;99.90;;;;;;5093921;28;20040;-71
2021/12/16 09:09:20;;;;;;;29.40;14.32;;;8.40;99.90;;;;;;5111242;28;20136;-71
2021/12/16 09:12:04;;;;;;;36.45;14.82;;;9.30;99.90;;;;;;5092821;28;20410;-71
2021/12/16 09:14:30;;;;;;;41.45;15.48;;;8.20;99.90;;;;;;5109472;28;20055;-71
2021/12/16 09:16:56;;;;;;;36.00;13.27;;;9.10;99.90;;;;;;5110061;28;20043;-72
2021/12/16 09:19:21;;;;;;;37.38;14.32;;;9.10;99.90;;;;;;5109052;28;20439;-71
2021/12/16 09:21:47;;;;;;;42.08;15.05;;;8.40;99.90;;;;;;5110476;28;20842;-71
2021/12/16 09:24:14;;;;;;;39.38;14.77;;;9.20;99.90;;;;;;5111133;28;20130;-71
2021/12/16 09:26:44;;;;;;;44.10;16.45;;;9.00;99.90;;;;;;5110229;28;20139;-71
2021/12/16 09:29:11;;;;;;;48.38;17.25;;;9.50;99.90;;;;;;5111131;28;20511;-71
2021/12/16 09:31:37;;;;;;;40.53;16.23;;;8.40;99.90;;;;;;5108423;28;20101;-71
2021/12/16 09:34:07;;;;;;;42.83;14.85;;;8.90;99.90;;;;;;5086336;28;20039;-71
2021/12/16 09:36:39;;;;;;;42.20;16.95;;;9.60;99.90;;;;;;5110913;27;20052;-72
2021/12/16 09:39:11;;;;;;;44.08;16.27;;;8.80;99.90;;;;;;5131465;27;20043;-71
2021/12/16 09:41:38;;;;;;;53.63;17.00;;;9.60;99.90;;;;;;5111350;27;20118;-72
2021/12/16 09:44:04;;;;;;;59.15;17.98;;;9.70;99.90;;;;;;5109444;28;20088;-72
2021/12/16 09:46:30;;;;;;;57.15;15.65;;;9.90;99.90;;;;;;5110453;28;20051;-72
2021/12/16 09:48:56;;;;;;;94.03;18.23;;;9.70;99.90;;;;;;5110620;28;20109;-72
2021/12/16 09:51:27;;;;;;;82.72;19.17;;;9.40;99.90;;;;;;5109734;28;20048;-71
2021/12/16 09:53:57;;;;;;;79.38;19.27;;;8.80;99.90;;;;;;5110707;28;20079;-72
2021/12/16 09:56:25;;;;;;;81.45;19.80;;;9.50;99.90;;;;;;5110133;28;20052;-72
2021/12/16 09:58:52;;;;;;;88.65;18.13;;;10.00;99.90;;;;;;5089351;28;20086;-72
2021/12/16 10:01:19;;;;;;;134.15;19.35;;;10.10;99.90;;;;;;5092949;28;20043;-72
2021/12/16 10:03:48;;;;;;;120.30;19.48;;;10.10;99.90;;;;;;5093329;28;20413;-72
2021/12/16 10:06:16;;;;;;;98.00;19.42;;;8.80;99.90;;;;;;5110668;28;20452;-72
2021/12/16 10:08:42;;;;;;;67.15;18.60;;;8.90;99.90;;;;;;5109204;28;20039;-72
2021/12/16 10:11:09;;;;;;;68.47;17.45;;;8.90;99.90;;;;;;5104060;28;20528;-72
2021/12/16 10:19:04;;;;;;;81.33;19.23;;;9.40;99.90;;;;;;5101553;27;20051;-72
2021/12/16 10:21:31;;;;;;;46.92;17.90;;;10.20;99.90;;;;;;5079367;27;20035;-71
2021/12/16 10:23:56;;;;;;;55.75;17.25;;;9.40;99.90;;;;;;5082486;28;20043;-72
2021/12/16 10:26:24;;;;;;;58.28;17.48;;;9.40;99.90;;;;;;5088269;28;20039;-71
2021/12/16 10:28:54;;;;;;;71.18;16.88;;;9.90;99.90;;;;;;5097555;28;20065;-72
2021/12/16 10:31:31;;;;;;;64.50;18.98;;;9.20;99.90;;;;;;5091175;28;20127;-71
2021/12/16 10:34:05;;;;;;;60.80;17.20;;;10.00;99.90;;;;;;5100008;28;20043;-71
2021/12/16 10:36:38;;;;;;;49.72;16.80;;;10.20;99.90;;;;;;5095342;28;20039;-72
2021/12/16 10:39:07;;;;;;;50.08;16.35;;;10.10;99.90;;;;;;5100925;28;20043;-71
2021/12/16 10:41:35;;;;;;;55.35;16.42;;;10.10;99.90;;;;;;5092881;28;20632;-72
2021/12/16 10:44:36;;;;;;;63.72;17.92;;;10.00;99.90;;;;;;5103655;28;20040;-73
2021/12/16 10:47:10;;;;;;;65.53;17.42;;;9.40;99.90;;;;;;5070763;28;20055;-72
2021/12/16 10:49:50;;;;;;;62.08;19.50;;;9.20;99.90;;;;;;5089552;28;20391;-71
2021/12/16 10:52:26;;;;;;;59.90;15.55;;;9.20;99.90;;;;;;5085665;28;20036;-72
2021/12/16 10:54:54;;;;;;;57.25;16.17;;;10.40;99.90;;;;;;5103543;28;20043;-72
2021/12/16 10:57:31;;;;;;;52.45;16.75;;;10.00;99.90;;;;;;5102986;28;20044;-71
2021/12/16 11:00:19;;;;;;;69.50;16.42;;;9.30;99.90;;;;;;5085502;28;20921;-72
2021/12/16 11:02:45;;;;;;;65.88;15.32;;;9.40;99.90;;;;;;5102647;28;20438;-72
2021/12/16 11:05:19;;;;;;;81.50;16.83;;;9.70;99.90;;;;;;5104125;28;20039;-72
2021/12/16 11:07:51;;;;;;;58.50;16.35;;;9.60;99.90;;;;;;5104657;28;20047;-71
2021/12/16 11:10:20;;;;;;;43.08;16.48;;;10.30;99.90;;;;;;5102198;28;20122;-71
2021/12/16 11:12:49;;;;;;;68.40;16.10;;;9.80;99.90;;;;;;5086646;28;20039;-71
2021/12/16 11:15:36;;;;;;;82.97;15.88;;;10.20;99.90;;;;;;5099650;28;20415;-72
2021/12/16 11:18:02;;;;;;;82.65;15.20;;;10.00;99.90;;;;;;5101234;28;20036;-71
2021/12/16 11:20:39;;;;;;;59.25;15.40;;;9.50;99.90;;;;;;5082949;28;20058;-71
2021/12/16 11:23:16;;;;;;;48.08;16.00;;;9.80;99.90;;;;;;5097858;28;20047;-71
2021/12/16 11:25:51;;;;;;;62.15;16.33;;;10.60;99.90;;;;;;5101864;28;20126;-72
2021/12/16 11:28:31;;;;;;;43.17;15.43;;;9.50;99.90;;;;;;5100257;28;20040;-71
2021/12/16 11:31:02;;;;;;;52.63;18.23;;;9.40;99.90;;;;;;5100720;28;20043;-71
2021/12/16 11:33:34;;;;;;;50.17;15.75;;;10.40;99.90;;;;;;5100080;28;20043;-72
2021/12/16 11:36:14;;;;;;;47.67;17.58;;;10.50;99.90;;;;;;5099631;28;20059;-71
2021/12/16 11:38:50;;;;;;;65.20;19.20;;;10.40;99.90;;;;;;5103426;28;20123;-71
2021/12/16 11:41:37;;;;;;;62.63;17.80;;;10.30;99.90;;;;;;5104256;28;20477;-71
2021/12/16 11:44:17;;;;;;;53.22;17.88;;;9.40;99.90;;;;;;5106855;28;20047;-71
2021/12/16 11:46:53;;;;;;;44.63;17.25;;;10.30;99.90;;;;;;5096915;28;20047;-71
2021/12/16 11:49:46;;;;;;;51.83;17.17;;;9.30;99.90;;;;;;5107193;28;20051;-72
2021/12/16 11:52:16;;;;;;;54.78;17.33;;;9.70;99.90;;;;;;5096003;28;20885;-72
2021/12/16 11:55:02;;;;;;;44.53;17.60;;;9.40;99.90;;;;;;5108562;28;20480;-72
2021/12/16 11:57:38;;;;;;;60.42;18.27;;;9.40;99.90;;;;;;5105620;28;20090;-73
2021/12/16 12:00:19;;;;;;;50.03;17.30;;;9.80;99.90;;;;;;5106195;28;20044;-72
2021/12/16 12:02:53;;;;;;;36.80;14.80;;;9.50;99.90;;;;;;5106582;28;20039;-72
2021/12/16 12:05:28;;;;;;;37.13;15.52;;;9.40;99.90;;;;;;5109468;27;20391;-73
2021/12/16 12:08:05;;;;;;;48.10;16.70;;;9.50;99.90;;;;;;5103345;28;20055;-72
2021/12/16 12:10:44;;;;;;;44.30;18.17;;;9.10;99.90;;;;;;5112042;27;20041;-72
2021/12/16 12:13:22;;;;;;;39.28;14.90;;;9.40;99.90;;;;;;5092725;27;20048;-72
2021/12/16 12:15:54;;;;;;;35.53;15.05;;;9.90;99.90;;;;;;5093390;27;20043;-72
2021/12/16 12:18:41;;;;;;;40.85;14.50;;;10.20;99.90;;;;;;5101608;28;20495;-72
2021/12/16 12:21:33;;;;;;;28.80;14.43;;;10.00;99.90;;;;;;5102990;28;20090;-72
2021/12/16 12:24:04;;;;;;;36.38;14.80;;;10.10;99.90;;;;;;5102664;27;20079;-72
2021/12/16 12:26:33;;;;;;;36.72;15.55;;;10.30;99.90;;;;;;5092950;28;20433;-73
2021/12/16 12:29:12;;;;;;;37.72;15.45;;;9.40;99.90;;;;;;5098374;28;20056;-72
2021/12/16 12:31:43;;;;;;;29.05;14.80;;;9.30;99.90;;;;;;5097160;28;20051;-72
2021/12/16 12:34:11;;;;;;;30.55;13.95;;;9.30;99.90;;;;;;5104357;28;20051;-73
2021/12/16 12:36:37;;;;;;;32.03;15.30;;;10.40;99.90;;;;;;5107283;28;20246;-71
2021/12/16 12:39:06;;;;;;;35.03;16.13;;;9.20;99.90;;;;;;5105100;28;20055;-73
2021/12/16 12:41:32;;;;;;;43.17;16.42;;;9.70;99.90;;;;;;5105189;28;20129;-73
2021/12/16 12:44:01;;;;;;;36.75;16.52;;;10.30;99.90;;;;;;5087257;28;20141;-72
2021/12/16 12:46:27;;;;;;;32.08;15.40;;;10.10;99.90;;;;;;5104214;28;20251;-72
2021/12/16 12:48:53;;;;;;;32.33;14.60;;;10.20;99.90;;;;;;5102195;28;21029;-72
2021/12/16 12:51:41;;;;;;;33.30;15.40;;;10.40;99.90;;;;;;5103580;28;20490;-72
2021/12/16 12:54:29;;;;;;;35.22;14.65;;;10.20;99.90;;;;;;5103789;28;20044;-72
2021/12/16 12:56:58;;;;;;;29.20;14.25;;;10.30;99.90;;;;;;5101130;28;20079;-72
2021/12/16 12:59:37;;;;;;;29.70;13.45;;;9.90;99.90;;;;;;5096116;28;20517;-72
2021/12/16 13:02:14;;;;;;;21.67;12.75;;;10.50;99.90;;;;;;5104650;28;20111;-73
2021/12/16 13:04:58;;;;;;;27.30;12.82;;;9.90;99.90;;;;;;5103504;28;20066;-72
2021/12/16 13:07:35;;;;;;;28.05;14.23;;;9.40;99.90;;;;;;5105169;28;20043;-71
2021/12/16 13:10:24;;;;;;;26.00;12.95;;;10.00;99.90;;;;;;5105801;28;20047;-71
2021/12/16 13:13:15;;;;;;;31.75;14.05;;;10.00;99.90;;;;;;5088373;28;20085;-71
2021/12/16 13:27:42;;;;;;;30.67;14.88;;;10.50;99.90;;;;;;5106569;28;19922;-72
2021/12/16 13:32:46;;;;;;;25.65;13.63;;;9.40;99.90;;;;;;5085980;28;20082;-72
2021/12/16 13:37:48;;;;;;;28.88;13.30;;;9.70;99.90;;;;;;5104269;28;20494;-72
2021/12/16 13:40:14;;;;;;;25.20;12.73;;;10.40;99.90;;;;;;5106691;28;20032;-72
2021/12/16 13:43:00;;;;;;;28.67;13.27;;;10.10;99.90;;;;;;5106188;28;20048;-72
2021/12/16 13:46:16;;;;;;;29.20;12.65;;;10.00;99.90;;;;;;5106722;28;20078;-72
2021/12/16 14:03:47;;;;;;;28.00;13.48;;;9.80;99.90;;;;;;5106449;28;20055;-73
2021/12/16 14:06:22;;;;;;;29.77;14.68;;;9.70;99.90;;;;;;5107235;28;20376;-73
2021/12/16 14:08:52;;;;;;;;;;;9.50;99.90;;;;;;5106145;28;20074;-72
2021/12/16 14:23:12;;;;;;;31.17;15.13;;;10.10;99.90;;;;;;4987343;28;20787;-72
2021/12/16 14:42:03;;;;;;;37.47;16.00;;;9.70;99.90;;;;;;5085294;28;20054;-73
2021/12/16 14:47:28;;;;;;;27.17;10.52;;;10.40;99.90;;;;;;5085809;28;20059;-72
2021/12/16 14:49:54;;;;;;;22.58;10.38;;;9.70;99.90;;;;;;5085291;28;20044;-71
2021/12/16 14:52:26;;;;;;;25.17;10.43;;;10.40;99.90;;;;;;5098146;28;20462;-72
2021/12/16 14:54:59;;;;;;;26.17;10.38;;;10.30;99.90;;;;;;5085131;28;20044;-71
2021/12/16 14:57:32;;;;;;;23.55;10.05;;;10.30;99.90;;;;;;5084657;28;20056;-72
2021/12/16 14:59:58;;;;;;;21.77;11.18;;;10.50;99.90;;;;;;5085334;28;20060;-71
2021/12/16 15:02:30;;;;;;;25.08;9.75;;;9.60;99.90;;;;;;5097106;28;20073;-71
2021/12/16 15:04:56;;;;;;;24.40;9.05;;;10.30;99.90;;;;;;5102394;28;20126;-71
2021/12/16 15:07:25;;;;;;;26.35;8.88;;;9.80;99.90;;;;;;5105489;28;20042;-72
2021/12/16 15:09:53;;;;;;;26.17;9.73;;;9.60;99.90;;;;;;5105180;28;20050;-72
2021/12/16 15:12:47;;;;;;;23.67;9.77;;;10.40;99.90;;;;;;5089989;28;20036;-71
2021/12/16 15:15:28;;;;;;;15.15;8.40;;;10.50;99.90;;;;;;5102785;28;20050;-72
2021/12/16 15:40:08;;;;;;;22.23;9.50;;;10.40;99.90;;;;;;5110166;28;20062;-72
2021/12/16 15:43:09;;;;;;;25.00;10.75;;;9.30;99.90;;;;;;5108208;28;20116;-72
2021/12/16 15:45:44;;;;;;;17.70;8.93;;;9.20;99.90;;;;;;5105737;28;20055;-74
2021/12/16 15:48:18;;;;;;;29.35;11.23;;;9.90;99.90;;;;;;5100427;28;20134;-76
2021/12/16 15:50:49;;;;;;;26.75;10.10;;;10.40;99.90;;;;;;5107486;28;20120;-73
2021/12/16 15:53:43;;;;;;;23.40;9.90;;;9.40;99.90;;;;;;5107471;28;20062;-76
2021/12/16 15:56:18;;;;;;;22.25;9.90;;;10.40;99.90;;;;;;5106883;28;20501;-72
2021/12/16 15:58:51;;;;;;;19.10;8.95;;;10.30;99.90;;;;;;5107417;28;20573;-74
2021/12/16 16:01:29;;;;;;;24.05;10.20;;;10.20;99.90;;;;;;5107288;28;20376;-73
2021/12/16 16:03:56;;;;;;;27.70;10.43;;;10.10;99.90;;;;;;5106770;28;21042;-72
2021/12/16 16:06:25;;;;;;;24.77;10.15;;;9.80;99.90;;;;;;5106923;28;20047;-73
2021/12/16 16:08:54;;;;;;;23.42;9.98;;;10.30;99.90;;;;;;5099167;28;20032;-74
2021/12/16 16:11:27;;;;;;;26.33;9.93;;;9.10;99.90;;;;;;5088397;28;20048;-72
2021/12/16 16:13:58;;;;;;;29.00;9.95;;;9.70;99.90;;;;;;5087761;28;20079;-74
2021/12/16 16:16:34;;;;;;;29.58;11.68;;;10.20;99.90;;;;;;5089129;28;20055;-72
2021/12/16 16:19:08;;;;;;;23.42;10.70;;;10.40;99.90;;;;;;5091717;28;20050;-72
2021/12/16 16:21:43;;;;;;;19.90;9.48;;;10.30;99.90;;;;;;5106946;28;20043;-74
2021/12/16 16:24:37;;;;;;;24.17;10.18;;;9.20;99.90;;;;;;5085330;28;20066;-73
2021/12/16 16:27:09;;;;;;;28.70;11.65;;;9.10;99.90;;;;;;5091422;28;20052;-74
2021/12/16 16:29:37;;;;;;;27.73;10.90;;;9.00;99.90;;;;;;5106699;28;20473;-72
2021/12/16 16:32:04;;;;;;;30.75;11.88;;;9.80;99.90;;;;;;5106491;28;20039;-72
2021/12/16 16:34:43;;;;;;;27.70;10.77;;;9.10;99.90;;;;;;5107916;28;20047;-71
2021/12/16 16:37:13;;;;;;;30.98;11.50;;;10.00;99.90;;;;;;5107341;28;20039;-73
2021/12/16 16:39:41;;;;;;;33.33;11.48;;;9.50;99.90;;;;;;5105743;28;20052;-72
2021/12/16 16:42:11;;;;;;;36.00;12.00;;;9.10;99.90;;;;;;5069914;28;20384;-73
2021/12/16 16:44:39;;;;;;;33.78;13.55;;;10.40;99.90;;;;;;5096245;27;20063;-73
2021/12/16 16:47:16;;;;;;;25.95;14.27;;;10.10;99.90;;;;;;5127240;27;20077;-72
2021/12/16 16:49:49;;;;;;;34.78;14.45;;;10.30;99.90;;;;;;5114798;27;20052;-72
2021/12/16 16:52:28;;;;;;;30.02;13.65;;;9.40;99.90;;;;;;5102301;28;20044;-73
2021/12/16 16:55:17;;;;;;;37.55;13.93;;;9.30;99.90;;;;;;5070238;28;20056;-73
2021/12/16 16:57:56;;;;;;;33.42;14.13;;;10.10;99.90;;;;;;5086306;28;20124;-73